Whitt, TX (76490)

12:00 PM CDT on August 02, 2015 (GMT -0500)
Western II, Mineral Wells | | Change Station
CLOSE
Current Station
Personal Weather Station
Location: Mineral Wells, TX
Elevation: 1040 ft
Nearby Weather Stations

Elev 1040 ft 32.82 °N, 98.10 °W | Updated 5 minutes ago

Overcast
Overcast
84.7 °F
Feels Like 89 °F
N
2.2
Wind Variable Wind from SSW

Today
High -- | Low -- °F
--% Chance of Precip.
Yesterday
High -- | Low -- °F
Precip. -- in
6:46 AM 8:30 PM
Waning Gibbous, 93% visible
Pressure 29.94 in
Visibility 10.0 miles
Clouds Overcast 9500 ft
Heat Index 89 °F
Dew Point 69 °F
Humidity 60%
Rainfall 0.02 in
Snow Depth Not available.
UV 3 out of 12
Pollen 4.60 out of 12
Air Quality Not available.
Flu Activity Not available.
METAR KMWL 021653Z AUTO 16007KT 10SM OVC095 30/19 A2998 RMK AO2 SLP137 T03000189

More Conditions Fewer Conditions

Pressure 29.94 in
Visibility 10.0 miles
Clouds Overcast 9500 ft
Heat Index 89 °F
Dew Point 69 °F
Humidity 60%
Rainfall 0.02 in
Snow Depth Not available.
UV 3 out of 12
Pollen 4.60 out of 12
Air Quality Not available.
Flu Activity Not available.
METAR KMWL 021653Z AUTO 16007KT 10SM OVC095 30/19 A2998 RMK AO2 SLP137 T03000189

More Conditions Fewer Conditions

Nowcast | as of 9:05 am CDT on August 2, 2015

Widely scattered light showers or sprinkles will occur along and west of a Gainesville...to Mineral Wells...to Comanche line through noon. Only a few hundredths to a trace of rainfall will occur with this activity. Otherwise...warm conditions will prevail with light east or southeast winds 5 to 10 mph. Skies will range from mostly cloudy west...to mostly clear east.

×

10-Day Weather Forecast

×

Almanac

Astronomy

Aug. 02, 2015 Rise Set
Actual Time
Civil Twilight
Nautical Twilight
Astronomical Twilight
Moon
Length of Visible Light
Length of Day
Tomorrow will be .
, % of the Moon is Illuminated

Today's Extremes

State Highs State Lows

Community

WunderPhotos

Upload Photos

1,843,317 photos uploaded!

WunderBlogs® & News

Nearby

Air Quality

  Air Quality AQ Index Pollutant
Not available.

Snow Depth

Station Depth Elevation

Earthquake Activity

City Distance Mag. Time & Date
Minimum magnitude displayed is 2.5.

Coastal Water Temperatures

Place Temperature

Stations

Nearby Weather Stations

Station Location Temp. Windchill Dew Point Humidity Wind Precip. Elev Updated Type